PATC/TNC METAR and TAF weather

Enter ICAO airport designator
Station Type Date Time Source
PATC METAR 2022/08/12 13:55 UTC NOAA

PATC 121355Z AUTO 22022KT M1/4SM -RA FG VV001 07/07 A2970 RMK AO2 PK WND 22028/1306 RAB1254 SLP058 P0000 T00680066


Station Type Date Time Source
PATC Decoded METAR 2022/08/12 13:55 UTC NOAA

Tin City Airways Facilities Sector, AK, United States (PATC) 65-34N 167-55W
Aug 12, 2022 - 09:55 AM EDT / 2022.08.12 1355 UTC
Wind: from the SW (220 degrees) at 25 MPH (22 KT):0
Visibility: less than 1/4 mile(s):1
Sky conditions: obscured
Weather: light rain; fog
Precipitation last hour: A trace
Temperature: 44.2 F (6.8 C)
Dew Point: 43.9 F (6.6 C)
Relative Humidity: 98%
Pressure (altimeter): 29.7 in. Hg (1005 hPa)
ob: PATC 121355Z AUTO 22022KT M1/4SM -RA FG VV001 07/07 A2970 RMK AO2 PK WND 22028/1306 RAB1254 SLP058 P0000 T00680066
cycle: 14

Station Type Date Time Source
PATC TAF 2016/08/27 04:12 UTC NOAA

TAF PATC 270400Z 2704/2810 18012G18KT 0400 FG OVC002 QNH3015INS TX10/2718Z TN06/2710Z

Example: see airport list